createdAt,value
2023-05-25T00:01:35.950Z,7.00
2023-05-25T00:04:04.438Z,5.93
2023-05-25T00:06:33.067Z,6.50
2023-05-25T00:09:01.165Z,9.83
2023-05-25T00:11:29.146Z,2.93
2023-05-25T00:13:58.442Z,7.20
2023-05-25T00:16:26.602Z,9.93
2023-05-25T00:18:57.611Z,4.30
2023-05-25T00:21:26.246Z,5.77
2023-05-25T00:23:54.325Z,6.33
2023-05-25T00:26:22.259Z,6.77
2023-05-25T00:28:50.179Z,7.83
2023-05-25T00:31:19.637Z,4.20
2023-05-25T00:33:47.909Z,8.00
2023-05-25T00:36:15.911Z,4.80
2023-05-25T00:38:43.869Z,8.90
2023-05-25T00:41:11.945Z,5.57
2023-05-25T00:43:40.057Z,5.60
2023-05-25T00:46:08.610Z,4.90
2023-05-25T00:48:40.039Z,13.60
2023-05-25T00:51:08.778Z,5.90
2023-05-25T00:53:37.163Z,6.80
2023-05-25T00:56:11.885Z,9.97
2023-05-25T00:58:41.494Z,4.40
2023-05-25T01:01:12.887Z,4.70
2023-05-25T01:03:46.851Z,4.60
2023-05-25T01:06:17.003Z,4.57
2023-05-25T01:08:51.195Z,7.00
2023-05-25T01:11:23.108Z,5.20
2023-05-25T01:13:54.514Z,4.20
2023-05-25T01:16:23.174Z,7.77
2023-05-25T01:18:52.734Z,6.73
2023-05-25T01:21:29.203Z,4.90
2023-05-25T01:24:03.185Z,7.17
2023-05-25T01:26:36.367Z,13.00
2023-05-25T01:29:06.054Z,8.00
2023-05-25T01:31:36.267Z,6.50
2023-05-25T01:34:05.791Z,4.23
2023-05-25T01:36:35.389Z,9.73
2023-05-25T01:39:03.513Z,8.90
2023-05-25T01:41:31.646Z,9.53
2023-05-25T01:43:59.767Z,9.43
2023-05-25T01:46:35.435Z,8.60
2023-05-25T01:49:13.750Z,5.13
2023-05-25T01:51:52.678Z,8.07
2023-05-25T01:54:23.093Z,6.70
2023-05-25T01:56:52.529Z,10.67
2023-05-25T01:59:22.630Z,6.83
2023-05-25T02:01:57.203Z,7.93
2023-05-25T02:04:26.296Z,8.43
2023-05-25T02:06:55.765Z,14.33
2023-05-25T02:09:23.966Z,6.70
2023-05-25T02:11:51.940Z,7.43
2023-05-25T02:14:19.998Z,7.00
2023-05-25T02:16:48.427Z,8.10
2023-05-25T02:19:16.415Z,10.73
2023-05-25T02:21:44.402Z,10.93
2023-05-25T02:24:14.675Z,10.80
2023-05-25T02:26:42.786Z,9.73
2023-05-25T02:29:11.652Z,12.07
2023-05-25T02:31:39.746Z,11.37
2023-05-25T02:34:07.826Z,11.73
2023-05-25T02:36:36.443Z,15.00
2023-05-25T02:39:05.020Z,9.70
2023-05-25T02:41:34.434Z,13.40
2023-05-25T02:44:02.401Z,17.70
2023-05-25T02:46:30.616Z,15.23
2023-05-25T02:48:59.965Z,14.17
2023-05-25T02:51:28.009Z,16.83
2023-05-25T02:53:56.155Z,17.97
2023-05-25T02:56:24.246Z,21.33
2023-05-25T02:58:53.647Z,15.97
2023-05-25T03:01:21.803Z,16.03
2023-05-25T03:03:52.502Z,14.90
2023-05-25T03:06:21.630Z,17.90
2023-05-25T03:08:49.749Z,14.03
2023-05-25T03:11:17.760Z,17.77
2023-05-25T03:13:45.809Z,16.60
2023-05-25T03:16:15.362Z,15.70
2023-05-25T03:18:43.363Z,16.37
2023-05-25T03:21:11.412Z,18.17
2023-05-25T03:23:39.862Z,16.50
2023-05-25T03:26:07.764Z,13.90
2023-05-25T03:28:36.075Z,14.00
2023-05-25T03:31:04.586Z,14.43
2023-05-25T03:33:34.330Z,18.40
2023-05-25T03:36:02.498Z,13.80
2023-05-25T03:38:30.483Z,16.83
2023-05-25T03:40:58.643Z,13.80
2023-05-25T03:43:26.817Z,14.67
2023-05-25T03:45:54.836Z,14.43
2023-05-25T03:48:22.813Z,13.50
2023-05-25T03:50:52.233Z,16.40
2023-05-25T03:53:20.337Z,12.27
2023-05-25T03:55:51.938Z,14.83
2023-05-25T03:58:20.051Z,17.00
2023-05-25T04:00:50.465Z,20.30
2023-05-25T04:03:18.976Z,14.13
2023-05-25T04:05:47.268Z,16.70
2023-05-25T04:08:18.968Z,14.00
2023-05-25T04:10:47.523Z,12.97
2023-05-25T04:13:15.907Z,17.20
2023-05-25T04:15:44.165Z,15.63
2023-05-25T04:18:12.491Z,15.13
2023-05-25T04:20:40.606Z,14.23
2023-05-25T04:23:08.874Z,14.70
2023-05-25T04:25:38.873Z,14.27
2023-05-25T04:28:08.558Z,12.67
2023-05-25T04:30:36.661Z,12.63
2023-05-25T04:33:04.927Z,11.70
2023-05-25T04:35:33.072Z,12.57
2023-05-25T04:38:02.699Z,17.77
2023-05-25T04:40:33.354Z,11.70
2023-05-25T04:43:03.438Z,14.20
2023-05-25T04:45:33.231Z,13.30
2023-05-25T04:48:03.104Z,10.37
2023-05-25T04:50:31.121Z,12.13
2023-05-25T04:52:59.122Z,15.53
2023-05-25T04:55:27.044Z,14.67
2023-05-25T04:57:55.291Z,15.67
2023-05-25T05:00:24.872Z,15.10
2023-05-25T05:02:54.009Z,12.33
2023-05-25T05:05:22.286Z,10.20
2023-05-25T05:07:50.468Z,13.13
2023-05-25T05:10:18.835Z,12.53
2023-05-25T05:12:46.944Z,13.40
2023-05-25T05:15:15.060Z,14.43
2023-05-25T05:17:44.603Z,14.70
2023-05-25T05:20:13.181Z,16.43
2023-05-25T05:22:41.311Z,13.97
2023-05-25T05:25:10.019Z,14.73
2023-05-25T05:27:38.218Z,13.63
2023-05-25T05:30:08.770Z,13.67
2023-05-25T05:32:36.958Z,15.70
2023-05-25T05:35:07.069Z,11.27
2023-05-25T05:37:35.107Z,20.57
2023-05-25T05:40:03.055Z,16.43
2023-05-25T05:42:31.163Z,13.03
2023-05-25T05:44:59.497Z,14.17
2023-05-25T05:47:27.643Z,17.10
2023-05-25T05:49:55.608Z,14.20
2023-05-25T05:52:25.229Z,15.47
2023-05-25T05:54:53.253Z,12.63
2023-05-25T05:57:21.307Z,16.80
2023-05-25T05:59:49.490Z,15.40
2023-05-25T06:02:17.767Z,13.70
2023-05-25T06:04:45.823Z,15.73
2023-05-25T06:07:13.795Z,12.30
2023-05-25T06:09:43.131Z,19.07
2023-05-25T06:12:11.304Z,11.33
2023-05-25T06:14:39.465Z,14.80
2023-05-25T06:17:07.490Z,16.37
2023-05-25T06:19:35.792Z,18.13
2023-05-25T06:22:03.763Z,14.70
2023-05-25T06:24:31.871Z,15.03
2023-05-25T06:27:03.320Z,16.10
2023-05-25T06:29:31.555Z,10.17
2023-05-25T06:31:59.681Z,12.60
2023-05-25T06:34:27.846Z,13.67
2023-05-25T06:36:55.860Z,14.13
2023-05-25T06:39:24.023Z,11.33
2023-05-25T06:41:52.149Z,11.90
2023-05-25T06:44:21.558Z,14.60
2023-05-25T06:46:49.542Z,15.00
2023-05-25T06:49:17.689Z,12.63
2023-05-25T06:51:46.078Z,14.23
2023-05-25T06:54:15.337Z,15.00
2023-05-25T06:56:43.526Z,18.83
2023-05-25T06:59:11.655Z,15.20
2023-05-25T07:01:41.118Z,16.63
2023-05-25T07:04:09.290Z,16.13
2023-05-25T07:06:37.256Z,12.30
2023-05-25T07:09:05.391Z,15.70
2023-05-25T07:11:33.499Z,12.03
2023-05-25T07:14:01.482Z,14.27
2023-05-25T07:16:29.558Z,14.27
2023-05-25T07:19:00.448Z,21.03
2023-05-25T07:21:28.841Z,14.53
2023-05-25T07:23:56.889Z,17.60
2023-05-25T07:26:25.696Z,12.13
2023-05-25T07:28:53.842Z,15.07
2023-05-25T07:31:22.594Z,14.57
2023-05-25T07:33:50.963Z,15.20
2023-05-25T07:36:20.774Z,14.70
2023-05-25T07:38:49.075Z,11.13
2023-05-25T07:41:17.012Z,17.57
2023-05-25T07:43:45.096Z,18.30
2023-05-25T07:46:13.149Z,12.37
2023-05-25T07:48:41.122Z,14.30
2023-05-25T07:51:09.666Z,15.10
2023-05-25T07:53:39.035Z,10.93
2023-05-25T07:56:09.756Z,12.27
2023-05-25T07:58:38.558Z,9.97
2023-05-25T08:01:06.721Z,14.47
2023-05-25T08:03:48.243Z,14.77
2023-05-25T08:06:17.404Z,11.00
2023-05-25T08:08:46.965Z,13.00
2023-05-25T08:11:16.618Z,15.10
2023-05-25T08:13:44.858Z,9.97
2023-05-25T08:16:12.984Z,13.33
2023-05-25T08:18:44.105Z,12.43
2023-05-25T08:21:12.216Z,12.57
2023-05-25T08:23:42.321Z,12.77
2023-05-25T08:26:30.949Z,12.50
2023-05-25T08:28:59.752Z,10.40
2023-05-25T08:31:27.883Z,13.43
2023-05-25T08:33:56.000Z,11.87
2023-05-25T08:36:23.981Z,11.60
2023-05-25T08:38:52.323Z,13.20
2023-05-25T08:41:22.848Z,11.20
2023-05-25T08:43:51.181Z,14.07
2023-05-25T08:46:30.242Z,18.03
2023-05-25T08:49:02.126Z,11.30
2023-05-25T08:51:36.982Z,12.80
2023-05-25T08:54:10.157Z,9.67
2023-05-25T08:56:45.925Z,12.07
2023-05-25T08:59:23.921Z,12.30
2023-05-25T09:01:59.900Z,11.50
2023-05-25T09:04:28.663Z,11.60
2023-05-25T09:07:09.776Z,12.70
2023-05-25T09:09:39.633Z,9.50
2023-05-25T09:12:10.357Z,10.90
2023-05-25T09:14:45.519Z,11.67
2023-05-25T09:17:14.347Z,11.13
2023-05-25T09:19:42.464Z,8.53
2023-05-25T09:22:15.593Z,9.10
2023-05-25T09:24:46.411Z,9.80
2023-05-25T09:27:19.586Z,9.63
2023-05-25T09:29:49.500Z,11.57
2023-05-25T09:32:17.991Z,10.20
2023-05-25T09:34:46.185Z,12.37
2023-05-25T09:37:16.265Z,13.20
2023-05-25T09:39:45.204Z,11.20
2023-05-25T09:42:13.659Z,11.17
2023-05-25T09:44:43.719Z,11.20
2023-05-25T09:47:14.092Z,10.45
2023-05-25T09:49:44.497Z,9.90
2023-05-25T09:52:13.881Z,9.17
2023-05-25T09:54:45.425Z,11.50
2023-05-25T09:57:13.457Z,12.00
2023-05-25T09:59:43.219Z,13.03
2023-05-25T10:02:11.260Z,10.60
2023-05-25T10:04:39.372Z,13.03
2023-05-25T10:07:08.279Z,12.80
2023-05-25T10:09:41.535Z,12.97
2023-05-25T10:12:10.408Z,11.00
2023-05-25T10:14:39.452Z,10.93
2023-05-25T10:17:12.677Z,10.67
2023-05-25T10:19:45.703Z,12.47
2023-05-25T10:22:17.717Z,12.73
2023-05-25T10:24:54.783Z,12.43
2023-05-25T10:27:27.567Z,13.83
2023-05-25T10:29:57.936Z,12.50
2023-05-25T10:32:28.397Z,15.47
2023-05-25T10:34:59.376Z,13.80
2023-05-25T10:37:29.192Z,11.47
2023-05-25T10:39:58.548Z,14.87
2023-05-25T10:42:27.505Z,9.37
2023-05-25T10:44:56.684Z,11.07
2023-05-25T10:47:25.769Z,11.20
2023-05-25T10:49:57.883Z,14.87
2023-05-25T10:52:29.582Z,11.83
2023-05-25T10:54:58.772Z,12.83
2023-05-25T10:57:27.338Z,12.00
2023-05-25T11:00:01.843Z,12.93
2023-05-25T11:02:32.380Z,13.53
2023-05-25T11:05:34.211Z,13.00
2023-05-25T11:08:04.432Z,12.10
2023-05-25T11:10:44.443Z,14.80
2023-05-25T11:13:41.194Z,11.90
2023-05-25T11:16:20.721Z,10.47
2023-05-25T11:18:53.407Z,13.43
2023-05-25T11:21:45.056Z,15.03
2023-05-25T11:24:15.159Z,10.73
2023-05-25T11:27:00.918Z,12.30
2023-05-25T11:29:33.284Z,11.20
2023-05-25T11:32:01.374Z,10.63
2023-05-25T11:34:32.061Z,11.93
2023-05-25T11:37:03.843Z,13.57
2023-05-25T11:39:32.739Z,15.17
2023-05-25T11:42:06.649Z,11.30
2023-05-25T11:44:37.096Z,11.17
2023-05-25T11:47:10.014Z,10.23
2023-05-25T11:49:41.930Z,11.27
2023-05-25T11:52:12.127Z,11.57
2023-05-25T11:54:41.880Z,11.67
2023-05-25T11:57:16.191Z,10.00
2023-05-25T11:59:49.624Z,11.63
2023-05-25T12:02:17.809Z,10.90
2023-05-25T12:04:55.146Z,11.13
2023-05-25T12:07:25.210Z,12.57
2023-05-25T12:09:53.542Z,11.10
2023-05-25T12:12:21.501Z,9.13
2023-05-25T12:14:49.663Z,10.27
2023-05-25T12:17:19.288Z,9.17
2023-05-25T12:19:47.764Z,8.17
2023-05-25T12:22:16.499Z,11.03
2023-05-25T12:24:46.093Z,10.47
2023-05-25T12:27:22.610Z,9.67
2023-05-25T12:29:53.192Z,8.07
2023-05-25T12:32:21.303Z,9.70
2023-05-25T12:34:49.499Z,14.70
2023-05-25T12:37:22.106Z,10.20
2023-05-25T12:39:51.846Z,10.97
2023-05-25T12:42:19.870Z,12.37
2023-05-25T12:44:47.864Z,9.40
2023-05-25T12:47:17.302Z,8.80
2023-05-25T12:49:46.697Z,11.60
2023-05-25T12:52:32.575Z,11.20
2023-05-25T12:55:20.928Z,10.40
2023-05-25T12:57:52.860Z,11.77
2023-05-25T13:00:23.404Z,10.50
2023-05-25T13:02:51.761Z,9.50
2023-05-25T13:05:24.363Z,10.57
2023-05-25T13:07:53.121Z,13.63
2023-05-25T13:10:23.203Z,12.07
2023-05-25T13:12:53.857Z,16.53
2023-05-25T13:15:22.389Z,11.40
2023-05-25T13:17:51.814Z,10.30
2023-05-25T13:20:22.854Z,13.10
2023-05-25T13:22:52.647Z,11.90
2023-05-25T13:25:22.910Z,12.53
2023-05-25T13:27:52.884Z,18.07
2023-05-25T13:30:22.090Z,11.20
2023-05-25T13:32:51.914Z,13.50
2023-05-25T13:35:37.601Z,11.00
2023-05-25T13:38:06.688Z,12.57
2023-05-25T13:40:36.224Z,13.37
2023-05-25T13:43:04.207Z,11.10
2023-05-25T13:45:32.208Z,14.87
2023-05-25T13:48:00.462Z,12.27
2023-05-25T13:50:28.507Z,11.50
2023-05-25T13:52:56.635Z,13.63
2023-05-25T13:55:24.600Z,13.50
2023-05-25T13:57:54.056Z,11.53
2023-05-25T14:00:22.619Z,12.07
2023-05-25T14:02:50.717Z,12.63
2023-05-25T14:05:19.939Z,11.33
2023-05-25T14:07:48.280Z,14.73
2023-05-25T14:10:16.504Z,14.43
2023-05-25T14:12:44.460Z,12.63
2023-05-25T14:15:14.045Z,12.03
2023-05-25T14:17:42.162Z,13.57
2023-05-25T14:20:15.655Z,14.87
2023-05-25T14:22:43.737Z,11.50
2023-05-25T14:25:11.853Z,13.43
2023-05-25T14:27:39.804Z,12.10
2023-05-25T14:30:09.096Z,15.80
2023-05-25T14:32:38.726Z,10.17
2023-05-25T14:35:07.921Z,11.90
2023-05-25T14:37:35.842Z,8.53
2023-05-25T14:40:04.264Z,11.53
2023-05-25T14:42:32.383Z,11.40
2023-05-25T14:45:00.513Z,12.10
2023-05-25T14:47:28.521Z,11.60
2023-05-25T14:49:58.018Z,8.50
2023-05-25T14:52:26.031Z,10.57
2023-05-25T14:54:53.984Z,12.80
2023-05-25T14:57:22.020Z,10.90
2023-05-25T14:59:49.976Z,9.97
2023-05-25T15:02:18.117Z,8.37
2023-05-25T15:04:47.672Z,9.73
2023-05-25T15:07:17.135Z,11.37
2023-05-25T15:09:45.368Z,9.90
2023-05-25T15:12:13.395Z,9.37
2023-05-25T15:14:42.452Z,8.10
2023-05-25T15:17:10.770Z,10.00
2023-05-25T15:19:38.897Z,8.70
2023-05-25T15:22:06.863Z,8.73
2023-05-25T15:24:36.285Z,11.27
2023-05-25T15:27:05.104Z,12.57
2023-05-25T15:29:33.324Z,10.77
2023-05-25T15:32:01.585Z,10.07
2023-05-25T15:34:29.730Z,7.23
2023-05-25T15:36:57.851Z,9.60
2023-05-25T15:39:25.979Z,8.20
2023-05-25T15:41:55.446Z,9.20
2023-05-25T15:44:23.444Z,8.37
2023-05-25T15:46:51.765Z,8.43
2023-05-25T15:49:20.272Z,8.90
2023-05-25T15:51:48.307Z,10.13
2023-05-25T15:54:16.473Z,5.70
2023-05-25T15:56:44.578Z,10.57
2023-05-25T15:59:13.972Z,8.30
2023-05-25T16:01:42.091Z,6.37
2023-05-25T16:04:10.342Z,8.53
2023-05-25T16:06:38.534Z,6.50
2023-05-25T16:09:06.816Z,6.60
2023-05-25T16:11:34.934Z,6.33
2023-05-25T16:14:03.069Z,6.43
2023-05-25T16:16:32.714Z,8.83
2023-05-25T16:19:00.997Z,7.30
2023-05-25T16:21:29.038Z,6.60
2023-05-25T16:23:57.145Z,6.83
2023-05-25T16:26:25.109Z,7.10
2023-05-25T16:28:53.502Z,9.63
2023-05-25T16:31:21.694Z,8.17
2023-05-25T16:33:51.156Z,7.30
2023-05-25T16:36:19.154Z,7.67
2023-05-25T16:38:47.296Z,5.83
2023-05-25T16:41:15.512Z,6.53
2023-05-25T16:43:43.586Z,8.53
2023-05-25T16:46:11.585Z,7.60
2023-05-25T16:48:39.590Z,5.47
2023-05-25T16:51:14.885Z,6.10
2023-05-25T16:53:43.677Z,8.13
2023-05-25T16:56:11.708Z,4.30
2023-05-25T16:58:39.875Z,4.83
2023-05-25T17:01:08.061Z,7.13
2023-05-25T17:03:36.297Z,5.80
2023-05-25T17:06:04.297Z,6.00
2023-05-25T17:08:33.773Z,6.00
2023-05-25T17:11:01.747Z,5.57
2023-05-25T17:13:29.811Z,6.90
2023-05-25T17:15:58.298Z,7.60
2023-05-25T17:18:26.872Z,4.77
2023-05-25T17:20:55.338Z,6.90
2023-05-25T17:23:23.333Z,7.17
2023-05-25T17:25:52.739Z,5.20
2023-05-25T17:28:20.889Z,6.30
2023-05-25T17:30:48.954Z,6.90
2023-05-25T17:33:17.292Z,4.50
2023-05-25T17:35:45.476Z,5.33
2023-05-25T17:38:13.832Z,6.80
2023-05-25T17:40:41.829Z,5.60
2023-05-25T17:43:11.274Z,5.50
2023-05-25T17:45:39.387Z,4.57
2023-05-25T17:48:07.568Z,4.57
2023-05-25T17:50:35.699Z,8.40
2023-05-25T17:53:04.226Z,5.30
2023-05-25T17:55:32.335Z,7.63
2023-05-25T17:58:00.295Z,7.87
2023-05-25T18:00:30.925Z,5.20
2023-05-25T18:02:58.977Z,8.13
2023-05-25T18:05:27.070Z,4.93
2023-05-25T18:07:55.204Z,5.00
2023-05-25T18:10:23.375Z,4.33
2023-05-25T18:12:52.285Z,4.27
2023-05-25T18:15:20.531Z,4.83
2023-05-25T18:17:50.008Z,4.60
2023-05-25T18:20:18.373Z,6.43
2023-05-25T18:22:46.671Z,6.17
2023-05-25T18:25:14.662Z,8.70
2023-05-25T18:27:42.638Z,5.90
2023-05-25T18:30:11.628Z,6.53
2023-05-25T18:32:39.816Z,6.63
2023-05-25T18:35:10.080Z,5.00
2023-05-25T18:37:38.029Z,4.60
2023-05-25T18:40:07.361Z,6.83
2023-05-25T18:42:35.737Z,4.20
2023-05-25T18:45:03.969Z,4.57
2023-05-25T18:47:32.290Z,5.50
2023-05-25T18:50:00.392Z,7.60
2023-05-25T18:52:29.870Z,6.37
2023-05-25T18:54:57.900Z,4.63
2023-05-25T18:57:25.923Z,6.23
2023-05-25T18:59:53.868Z,5.43
2023-05-25T19:02:22.083Z,6.77
2023-05-25T19:04:50.157Z,7.87
2023-05-25T19:07:18.275Z,7.30
2023-05-25T19:09:48.051Z,6.23
2023-05-25T19:12:16.537Z,6.20
2023-05-25T19:14:44.540Z,5.80
2023-05-25T19:17:12.525Z,5.20
2023-05-25T19:19:40.624Z,5.73
2023-05-25T19:22:08.882Z,6.47
2023-05-25T19:24:40.864Z,5.70
2023-05-25T19:27:11.910Z,8.17
2023-05-25T19:29:40.158Z,8.37
2023-05-25T19:32:08.307Z,7.40
2023-05-25T19:34:36.880Z,13.40
2023-05-25T19:39:38.526Z,16.20
2023-05-25T19:42:08.029Z,15.10
2023-05-25T19:44:37.913Z,11.30
2023-05-25T19:47:06.233Z,12.33
2023-05-25T19:49:34.241Z,9.83
2023-05-25T19:52:02.248Z,10.80
2023-05-25T19:54:30.897Z,10.63
2023-05-25T19:56:58.838Z,17.40
2023-05-25T19:59:27.954Z,33.57
2023-05-25T20:01:57.891Z,9.93
2023-05-25T20:04:26.388Z,29.10
2023-05-25T20:06:55.500Z,10.53
2023-05-25T20:09:29.883Z,19.67
2023-05-25T20:11:58.927Z,16.63
2023-05-25T20:14:27.160Z,11.80
2023-05-25T20:16:55.977Z,15.60
2023-05-25T20:19:25.617Z,13.33
2023-05-25T20:21:53.742Z,14.43
2023-05-25T20:24:22.202Z,11.80
2023-05-25T20:26:50.873Z,12.00
2023-05-25T20:29:19.058Z,10.87
2023-05-25T20:31:47.093Z,10.17
2023-05-25T20:34:15.123Z,10.53
2023-05-25T20:36:44.635Z,10.80
2023-05-25T20:39:12.741Z,9.93
2023-05-25T20:41:41.017Z,11.37
2023-05-25T20:44:10.036Z,11.83
2023-05-25T20:46:38.363Z,11.90
2023-05-25T20:49:06.464Z,10.27
2023-05-25T20:51:34.645Z,11.07
2023-05-25T20:54:04.284Z,11.83
2023-05-25T20:56:32.267Z,8.67
2023-05-25T20:59:00.889Z,10.03
2023-05-25T21:01:29.285Z,9.70
2023-05-25T21:03:57.592Z,8.30
2023-05-25T21:06:26.284Z,9.30
2023-05-25T21:08:54.468Z,9.40
2023-05-25T21:11:23.884Z,10.00
2023-05-25T21:13:51.987Z,6.97
2023-05-25T21:16:19.988Z,11.60
2023-05-25T21:18:48.399Z,9.77
2023-05-25T21:21:16.750Z,8.30
2023-05-25T21:23:44.851Z,11.17
2023-05-25T21:26:12.968Z,11.43
2023-05-25T21:28:42.318Z,10.53
2023-05-25T21:31:10.289Z,9.70
2023-05-25T21:33:38.288Z,15.23
2023-05-25T21:36:06.901Z,12.40
2023-05-25T21:38:34.874Z,10.10
2023-05-25T21:41:02.983Z,13.40
2023-05-25T21:43:31.202Z,13.03
2023-05-25T21:46:00.818Z,11.47
2023-05-25T21:48:28.892Z,8.60
2023-05-25T21:50:57.109Z,9.50
2023-05-25T21:53:25.955Z,10.80
2023-05-25T21:55:54.014Z,9.47
2023-05-25T21:58:22.138Z,13.83
2023-05-25T22:00:50.342Z,11.10
2023-05-25T22:03:19.783Z,14.20
2023-05-25T22:05:47.903Z,14.97
2023-05-25T22:08:16.012Z,12.53
2023-05-25T22:10:44.175Z,10.20
2023-05-25T22:13:12.122Z,12.43
2023-05-25T22:15:40.117Z,9.93
2023-05-25T22:18:08.223Z,11.57
2023-05-25T22:20:38.896Z,13.07
2023-05-25T22:23:07.106Z,10.87
2023-05-25T22:25:35.047Z,12.50
2023-05-25T22:28:03.214Z,13.93
2023-05-25T22:30:31.203Z,13.57
2023-05-25T22:32:59.160Z,18.43
2023-05-25T22:35:27.374Z,12.90
2023-05-25T22:37:56.722Z,10.37
2023-05-25T22:40:24.875Z,10.70
2023-05-25T22:42:52.835Z,11.47
2023-05-25T22:45:21.919Z,14.17
2023-05-25T22:47:50.087Z,9.17
2023-05-25T22:50:18.297Z,11.27
2023-05-25T22:52:46.240Z,13.20
2023-05-25T22:55:16.294Z,10.80
2023-05-25T22:57:44.201Z,11.20
2023-05-25T23:00:13.088Z,17.40
2023-05-25T23:02:41.102Z,13.27
2023-05-25T23:05:10.169Z,11.90
2023-05-25T23:07:38.285Z,12.20
2023-05-25T23:10:07.142Z,11.27
2023-05-25T23:12:36.503Z,12.00
2023-05-25T23:15:06.940Z,12.67
2023-05-25T23:17:34.990Z,14.10
2023-05-25T23:22:35.446Z,10.90
2023-05-25T23:25:03.554Z,10.50
2023-05-25T23:27:32.361Z,12.83
2023-05-25T23:30:02.311Z,11.93
2023-05-25T23:32:30.486Z,13.33
2023-05-25T23:34:58.461Z,13.73
2023-05-25T23:37:26.830Z,14.40
2023-05-25T23:39:54.867Z,14.87
2023-05-25T23:42:22.777Z,13.40
2023-05-25T23:44:50.898Z,9.23
2023-05-25T23:47:20.264Z,13.90
2023-05-25T23:49:48.342Z,12.93
2023-05-25T23:52:16.373Z,15.67
2023-05-25T23:54:44.533Z,15.20
2023-05-25T23:57:12.970Z,12.90
2023-05-25T23:59:41.089Z,15.40
